Time;durP1;ratioP1;P1;durP2;ratioP2;P2;SDS_P1;SDS_P2;PMS_P1;PMS_P2;Temp;Humidity;BMP_temperature;BMP_pressure;BME280_temperature;BME280_humidity;BME280_pressure;Samples;Min_cycle;Max_cycle;Signal;HPM_P1;HPM_P2
2021/05/01 00:04:34;;;;;;;17.00;11.55;;;;;;;14.86;55.38;98679.11;4314633;80;28622;-82
2021/05/01 00:10:36;;;;;;;18.07;12.43;;;;;;;14.63;57.08;98679.81;4266844;81;28673;-82
2021/05/01 00:16:38;;;;;;;21.48;14.70;;;;;;;14.96;55.67;98676.41;4324485;80;28665;-82
2021/05/01 00:22:41;;;;;;;20.43;12.88;;;;;;;14.44;58.31;98673.56;4203440;81;28581;-82
2021/05/01 00:28:43;;;;;;;20.25;12.33;;;;;;;14.45;58.34;98669.78;4255355;81;28615;-82
2021/05/01 00:34:45;;;;;;;16.42;10.60;;;;;;;14.54;58.39;98676.83;4308330;80;28549;-82
2021/05/01 00:40:47;;;;;;;18.12;11.28;;;;;;;14.80;57.41;98685.05;4269047;82;28595;-82
2021/05/01 00:46:49;;;;;;;18.85;12.05;;;;;;;15.01;56.12;98710.24;4269395;82;28604;-81
2021/05/01 00:52:51;;;;;;;16.85;12.00;;;;;;;14.87;56.55;98712.65;4314165;81;28567;-81
2021/05/01 00:58:55;;;;;;;20.25;12.25;;;;;;;14.58;58.41;98710.92;4260836;81;28602;-81
2021/05/01 01:04:57;;;;;;;18.67;12.10;;;;;;;14.62;58.27;98713.36;4254608;82;28670;-81
2021/05/01 01:11:01;;;;;;;20.27;11.78;;;;;;;14.30;60.27;98702.16;4324343;81;28633;-81
2021/05/01 01:17:04;;;;;;;18.95;11.57;;;;;;;14.56;58.69;98701.71;4199479;82;28664;-81
2021/05/01 01:23:07;;;;;;;20.10;12.40;;;;;;;14.63;58.58;98699.58;4228701;81;28624;-81
2021/05/01 01:29:13;;;;;;;18.00;10.93;;;;;;;13.93;62.62;98700.64;4300451;80;28627;-81
2021/05/01 01:35:15;;;;;;;19.73;12.28;;;;;;;14.35;60.57;98689.47;4242980;83;28589;-81
2021/05/01 01:41:18;;;;;;;21.82;13.38;;;;;;;13.83;63.24;98676.27;4300719;82;28626;-81
2021/05/01 01:47:20;;;;;;;22.00;13.58;;;;;;;13.79;64.08;98676.48;4237570;81;28595;-81
2021/05/01 01:53:23;;;;;;;19.62;12.05;;;;;;;14.07;61.53;98669.91;4181846;84;28650;-81
2021/05/01 01:59:29;;;;;;;22.00;12.35;;;;;;;14.66;58.74;98683.89;4200204;84;28679;-82
2021/05/01 02:05:31;;;;;;;21.12;12.90;;;;;;;14.14;61.42;98686.41;4194987;83;28615;-81
2021/05/01 02:11:34;;;;;;;22.87;13.68;;;;;;;14.46;59.20;98683.57;4206143;84;28566;-81
2021/05/01 02:17:39;;;;;;;21.77;13.85;;;;;;;14.27;60.07;98689.17;4194138;83;28646;-81
2021/05/01 02:23:41;;;;;;;18.02;11.03;;;;;;;13.95;62.24;98674.69;4192752;84;28611;-81
2021/05/01 02:29:43;;;;;;;17.42;11.93;;;;;;;14.41;59.86;98681.39;4201945;82;28577;-81
2021/05/01 02:35:45;;;;;;;22.02;14.13;;;;;;;14.84;57.88;98680.72;4194760;82;28611;-81
2021/05/01 02:41:47;;;;;;;23.12;14.68;;;;;;;14.60;58.98;98671.71;4372780;81;28646;-81
2021/05/01 02:47:50;;;;;;;21.77;13.13;;;;;;;13.91;62.75;98664.97;4353156;81;28681;-81
2021/05/01 02:53:52;;;;;;;21.27;13.55;;;;;;;14.39;60.79;98655.16;4243922;81;28626;-82
2021/05/01 02:59:54;;;;;;;21.12;13.98;;;;;;;14.25;60.95;98652.92;4310361;81;28639;-82
2021/05/01 03:05:56;;;;;;;25.00;15.28;;;;;;;14.48;59.68;98653.00;4232237;81;28581;-82
2021/05/01 03:11:58;;;;;;;23.57;14.25;;;;;;;14.13;62.32;98654.52;4290326;82;28582;-81
2021/05/01 03:18:00;;;;;;;20.80;13.48;;;;;;;13.93;63.28;98659.28;4332294;80;28631;-81
2021/05/01 03:24:03;;;;;;;17.98;12.28;;;;;;;14.26;61.92;98661.86;4258735;83;28558;-81
2021/05/01 03:30:10;;;;;;;22.55;13.30;;;;;;;13.84;64.68;98663.02;4288669;82;28609;-81
2021/05/01 03:36:12;;;;;;;20.92;12.90;;;;;;;14.11;67.12;98656.69;4256949;83;28615;-81
2021/05/01 03:42:15;;;;;;;20.30;13.90;;;;;;;13.96;70.04;98642.56;4288816;82;28701;-81
2021/05/01 03:48:17;;;;;;;26.70;15.40;;;;;;;13.17;76.69;98646.33;4240707;83;28631;-81
2021/05/01 03:54:19;;;;;;;23.70;14.70;;;;;;;13.53;75.12;98653.38;4330272;81;28586;-81
2021/05/01 04:00:23;;;;;;;27.60;16.25;;;;;;;13.44;80.08;98642.76;4246960;82;28552;-81
2021/05/01 04:06:25;;;;;;;25.27;16.57;;;;;;;13.76;75.96;98652.70;4296961;82;28622;-80
2021/05/01 04:12:27;;;;;;;23.15;15.05;;;;;;;13.75;80.10;98661.37;4251205;82;28703;-81
2021/05/01 04:18:29;;;;;;;21.40;14.05;;;;;;;13.40;83.53;98655.95;4275467;82;28575;-81
2021/05/01 04:24:32;;;;;;;22.10;14.93;;;;;;;13.56;81.73;98660.16;4289263;81;28593;-81
2021/05/01 04:30:34;;;;;;;25.40;15.80;;;;;;;13.09;88.92;98657.89;4294260;82;28596;-81
2021/05/01 04:36:36;;;;;;;21.40;13.40;;;;;;;12.86;93.72;98646.89;4426358;80;28645;-82
2021/05/01 04:42:46;;;;;;;21.75;14.23;;;;;;;13.23;85.61;98661.50;4381278;80;28642;-82
2021/05/01 04:48:42;;;;;;;23.95;15.32;;;;;;;13.47;83.28;98679.55;4409298;79;28610;-81
2021/05/01 04:54:45;;;;;;;21.50;14.47;;;;;;;13.85;81.57;98674.11;4429772;80;28567;-81
2021/05/01 05:00:47;;;;;;;21.55;14.35;;;;;;;13.33;87.59;98664.28;4303930;81;28641;-81
2021/05/01 05:06:49;;;;;;;24.52;15.72;;;;;;;13.66;83.39;98666.98;4324892;81;28582;-81
2021/05/01 05:12:52;;;;;;;25.17;16.32;;;;;;;13.39;86.55;98656.52;4277745;82;28584;-80
2021/05/01 05:18:56;;;;;;;23.90;13.90;;;;;;;13.72;80.55;98667.82;4318379;81;28693;-80
2021/05/01 05:24:58;;;;;;;22.50;14.00;;;;;;;13.90;81.31;98670.09;4285020;81;28615;-80
2021/05/01 05:31:00;;;;;;;22.73;15.63;;;;;;;14.05;81.79;98646.91;4254736;81;28621;-80
2021/05/01 05:37:03;;;;;;;24.65;15.45;;;;;;;13.26;91.68;98651.53;4299630;81;28704;-80
2021/05/01 05:43:06;;;;;;;23.02;15.10;;;;;;;13.89;84.47;98657.63;4329184;80;28624;-79
2021/05/01 05:49:09;;;;;;;20.95;13.03;;;;;;;14.18;82.17;98642.92;4273195;82;28608;-80
2021/05/01 05:55:12;;;;;;;24.15;15.58;;;;;;;14.32;81.40;98625.11;4367456;80;28666;-79
2021/05/01 06:01:15;;;;;;;22.85;15.18;;;;;;;14.13;84.03;98636.95;4356096;80;28573;-79
2021/05/01 06:07:25;;;;;;;24.05;14.95;;;;;;;14.97;71.62;98657.73;4380865;80;28656;-79
2021/05/01 06:13:31;;;;;;;22.42;14.68;;;;;;;14.73;72.89;98663.63;4336650;80;28540;-78
2021/05/01 06:19:33;;;;;;;23.80;15.25;;;;;;;15.00;73.73;98654.48;4373192;80;28579;-81
2021/05/01 06:25:36;;;;;;;26.73;16.73;;;;;;;14.07;81.87;98627.19;4365167;81;28605;-83
2021/05/01 06:31:39;;;;;;;22.30;14.25;;;;;;;13.91;85.74;98639.29;4323358;81;28696;-82
2021/05/01 06:37:44;;;;;;;21.00;13.72;;;;;;;14.54;81.89;98659.80;4323372;81;28600;-84
2021/05/01 06:50:08;;;;;;;22.80;15.43;;;;;;;14.34;81.98;98618.09;4390659;79;59574;-81
2021/05/01 06:56:19;;;;;;;25.12;15.72;;;;;;;14.96;76.23;98650.70;4379728;79;86099;-81
2021/05/01 07:02:32;;;;;;;21.25;14.10;;;;;;;13.65;90.50;98624.84;4325687;80;28661;-81
2021/05/01 07:08:34;;;;;;;23.05;15.48;;;;;;;14.60;80.25;98628.95;4318452;80;28627;-81
2021/05/01 07:14:37;;;;;;;24.87;16.15;;;;;;;14.78;80.57;98639.30;4316107;80;28640;-82
2021/05/01 07:20:40;;;;;;;23.77;15.45;;;;;;;14.21;83.79;98625.63;4300675;81;28575;-81
2021/05/01 07:26:44;;;;;;;23.47;16.00;;;;;;;14.41;82.55;98632.71;4306127;80;28650;-81
2021/05/01 07:32:51;;;;;;;21.65;14.93;;;;;;;14.69;81.14;98634.11;4318613;80;28565;-81
2021/05/01 07:38:58;;;;;;;25.12;15.68;;;;;;;15.09;75.48;98645.27;4329579;80;28688;-82
2021/05/01 07:45:01;;;;;;;22.95;14.25;;;;;;;15.61;74.88;98647.93;4316474;80;28639;-81
2021/05/01 07:51:05;;;;;;;22.93;15.38;;;;;;;15.68;72.60;98651.73;4320637;80;28572;-81
2021/05/01 07:57:07;;;;;;;22.98;16.73;;;;;;;14.78;78.46;98670.42;4340373;80;28640;-82
2021/05/01 08:03:11;;;;;;;23.25;15.93;;;;;;;14.94;79.39;98658.25;4340213;80;28598;-80
2021/05/01 08:09:17;;;;;;;24.07;16.73;;;;;;;15.42;73.41;98645.81;4311632;80;28576;-80
2021/05/01 08:15:19;;;;;;;24.52;16.05;;;;;;;15.31;74.64;98656.39;4331643;80;28693;-83
2021/05/01 08:21:21;;;;;;;24.23;16.27;;;;;;;15.36;74.76;98655.55;4336777;80;28619;-82
2021/05/01 08:27:24;;;;;;;28.57;19.48;;;;;;;15.02;80.36;98630.66;4331629;81;28583;-82
2021/05/01 08:33:26;;;;;;;31.27;20.52;;;;;;;15.33;77.71;98637.97;4319431;81;28621;-81
2021/05/01 08:39:28;;;;;;;26.60;17.70;;;;;;;15.87;72.77;98654.09;4340421;80;28541;-80
2021/05/01 08:45:32;;;;;;;30.15;20.37;;;;;;;16.48;67.77;98666.91;4345215;80;28675;-77
2021/05/01 08:51:36;;;;;;;29.98;19.60;;;;;;;16.15;68.39;98665.43;4316545;80;28590;-82
2021/05/01 08:57:38;;;;;;;28.98;19.07;;;;;;;16.21;69.86;98660.00;4328501;80;28687;-81
2021/05/01 09:03:43;;;;;;;23.52;16.32;;;;;;;16.45;68.51;98671.81;4326817;80;28548;-80
2021/05/01 09:09:56;;;;;;;25.75;16.35;;;;;;;16.43;68.61;98686.21;4312072;80;28578;-79
2021/05/01 09:16:07;;;;;;;26.27;17.50;;;;;;;16.48;67.99;98701.66;4332977;82;28609;-81
2021/05/01 09:22:18;;;;;;;23.07;16.70;;;;;;;16.19;69.57;98697.41;4382180;79;74044;-80
2021/05/01 09:28:22;;;;;;;25.90;17.42;;;;;;;16.33;70.48;98690.33;4303365;80;28591;-82
2021/05/01 09:34:37;;;;;;;24.47;17.32;;;;;;;16.51;66.63;98689.44;4341636;81;28602;-81
2021/05/01 09:40:46;;;;;;;25.52;16.40;;;;;;;16.29;70.23;98678.39;4284333;81;28658;-82
2021/05/01 09:46:52;;;;;;;24.18;17.17;;;;;;;16.32;68.14;98694.12;4298138;80;28647;-82
2021/05/01 09:53:03;;;;;;;24.47;16.95;;;;;;;16.67;64.36;98693.68;4307223;81;28572;-81
2021/05/01 09:59:06;;;;;;;27.52;18.48;;;;;;;17.10;62.88;98678.23;4310591;80;28609;-79
2021/05/01 10:05:14;;;;;;;24.47;16.73;;;;;;;17.52;61.20;98678.69;4322489;80;28576;-79
2021/05/01 10:11:17;;;;;;;24.50;17.57;;;;;;;18.13;60.39;98678.38;4325320;81;28651;-82
2021/05/01 10:17:28;;;;;;;24.30;17.57;;;;;;;18.47;58.79;98684.75;4320193;81;28610;-81
2021/05/01 10:23:30;;;;;;;25.57;18.23;;;;;;;18.45;58.43;98664.65;4324192;81;28634;-82
2021/05/01 10:29:36;;;;;;;28.17;19.37;;;;;;;19.55;54.75;98644.73;4334459;81;28620;-82
2021/05/01 10:35:39;;;;;;;32.70;22.07;;;;;;;19.75;54.16;98633.45;4309007;80;28670;-80
2021/05/01 10:41:59;;;;;;;29.10;21.27;;;;;;;19.23;54.67;98637.09;4318820;80;34628;-82
2021/05/01 10:48:08;;;;;;;29.23;19.87;;;;;;;20.60;52.55;98644.55;4312009;81;28628;-81
2021/05/01 10:54:28;;;;;;;27.20;19.67;;;;;;;20.26;52.63;98647.20;4317792;80;28655;-81
2021/05/01 11:00:44;;;;;;;27.15;19.92;;;;;;;20.24;52.42;98637.70;4313811;80;28622;-81
2021/05/01 11:07:11;;;;;;;27.22;19.73;;;;;;;20.98;51.47;98628.95;4306064;80;28608;-83
2021/05/01 11:13:29;;;;;;;30.82;21.05;;;;;;;20.47;52.79;98622.98;4253273;80;28582;-83
2021/05/01 11:19:32;;;;;;;29.02;20.88;;;;;;;21.20;50.82;98619.16;4320243;80;28626;-83
2021/05/01 11:25:35;;;;;;;27.90;20.17;;;;;;;21.13;49.55;98626.41;4321411;81;28576;-82
2021/05/01 11:31:41;;;;;;;28.65;21.12;;;;;;;21.38;49.04;98628.25;4318444;81;28648;-83
2021/05/01 11:37:56;;;;;;;29.18;20.80;;;;;;;21.78;47.70;98626.12;4344931;81;28678;-81
2021/05/01 11:43:58;;;;;;;32.28;23.07;;;;;;;21.28;48.86;98626.58;4321825;81;28645;-82
2021/05/01 11:50:01;;;;;;;28.75;20.77;;;;;;;21.05;49.28;98643.57;4362008;81;28596;-83
2021/05/01 11:56:34;;;;;;;29.92;20.95;;;;;;;20.78;51.40;98650.17;4332064;81;28954;-82
2021/05/01 12:02:40;;;;;;;29.57;21.10;;;;;;;21.11;51.30;98656.80;4328290;81;29065;-80
2021/05/01 12:08:42;;;;;;;32.70;23.02;;;;;;;21.29;51.42;98654.98;4330198;81;28652;-81
2021/05/01 12:14:47;;;;;;;31.90;21.85;;;;;;;21.06;50.74;98641.09;4322861;81;28626;-83
2021/05/01 12:20:54;;;;;;;28.87;21.93;;;;;;;21.88;48.81;98634.05;4302376;81;28626;-86
2021/05/01 12:26:57;;;;;;;28.85;21.12;;;;;;;22.21;47.09;98639.13;4309094;82;28610;-83
2021/05/01 12:33:31;;;;;;;27.73;20.45;;;;;;;22.70;45.82;98608.13;4305556;82;28604;-83
2021/05/01 12:39:34;;;;;;;32.17;23.25;;;;;;;22.48;46.27;98592.61;4318532;80;28595;-84
2021/05/01 12:45:36;;;;;;;32.45;22.77;;;;;;;22.48;46.79;98597.54;4307254;80;28618;-82
2021/05/01 12:51:44;;;;;;;26.73;20.80;;;;;;;22.77;45.74;98579.69;4305148;80;28735;-81
2021/05/01 12:57:47;;;;;;;30.82;22.73;;;;;;;23.43;44.06;98576.42;4322433;80;28681;-84
2021/05/01 13:04:25;;;;;;;27.10;21.27;;;;;;;22.95;44.73;98573.60;4310342;82;28570;-84
2021/05/01 13:10:27;;;;;;;27.40;20.48;;;;;;;22.96;46.06;98573.02;4325710;82;28633;-82
2021/05/01 13:16:29;;;;;;;29.80;21.97;;;;;;;23.24;44.90;98575.38;4290951;82;28617;-83
2021/05/01 13:22:31;;;;;;;27.62;20.77;;;;;;;23.25;45.61;98589.33;4322767;81;28657;-82
2021/05/01 13:28:36;;;;;;;29.12;21.82;;;;;;;23.02;47.03;98595.03;4320453;81;28674;-83
2021/05/01 13:34:39;;;;;;;31.10;22.82;;;;;;;23.11;45.07;98578.00;4340091;81;28617;-85
2021/05/01 13:40:43;;;;;;;29.15;21.45;;;;;;;22.75;46.29;98568.22;4329967;81;28637;-84
2021/05/01 13:46:45;;;;;;;28.10;20.57;;;;;;;23.06;45.77;98568.56;4321341;81;28617;-84
2021/05/01 13:52:52;;;;;;;28.95;21.68;;;;;;;23.73;44.73;98569.56;4337544;81;28682;-84
2021/05/01 13:58:56;;;;;;;29.00;22.37;;;;;;;23.51;43.81;98572.02;4369900;81;28564;-84
2021/05/01 14:04:59;;;;;;;28.70;21.95;;;;;;;23.41;43.85;98558.09;4302614;83;28574;-85
2021/05/01 14:11:05;;;;;;;31.05;22.27;;;;;;;23.07;45.75;98559.79;4327863;81;28607;-84
2021/05/01 14:17:08;;;;;;;26.15;19.37;;;;;;;23.01;46.26;98550.94;4355797;81;28599;-85
2021/05/01 14:23:14;;;;;;;30.90;22.55;;;;;;;23.34;45.42;98571.53;4365233;81;28605;-85
2021/05/01 14:29:16;;;;;;;27.48;20.62;;;;;;;22.98;46.08;98570.20;4342566;80;28597;-86
2021/05/01 14:35:18;;;;;;;29.45;22.13;;;;;;;22.75;46.65;98571.53;4312389;82;28604;-86
2021/05/01 14:41:26;;;;;;;30.68;21.95;;;;;;;22.77;47.23;98567.35;4306361;82;28564;-84
2021/05/01 14:47:32;;;;;;;28.27;21.68;;;;;;;22.47;48.01;98558.95;4289963;80;28650;-86
2021/05/01 14:53:34;;;;;;;30.85;22.17;;;;;;;22.82;46.89;98564.42;4310661;82;28576;-86
2021/05/01 14:59:43;;;;;;;31.50;22.05;;;;;;;22.60;48.09;98561.33;4314511;80;28666;-84
2021/05/01 15:05:45;;;;;;;35.10;24.12;;;;;;;22.71;47.38;98563.16;4298011;82;28626;-86
2021/05/01 15:11:47;;;;;;;29.98;22.13;;;;;;;22.38;48.26;98557.56;4318270;80;28593;-87
2021/05/01 15:17:52;;;;;;;30.57;23.95;;;;;;;22.44;48.39;98543.17;4308228;81;28622;-86
2021/05/01 15:23:55;;;;;;;30.92;23.00;;;;;;;21.81;50.53;98547.51;4300712;80;28955;-86
2021/05/01 15:30:22;;;;;;;29.52;22.17;;;;;;;21.59;51.42;98542.35;4308271;80;28579;-87
2021/05/01 15:36:24;;;;;;;32.50;22.80;;;;;;;22.03;50.12;98541.70;4302580;81;28650;-85
2021/05/01 15:42:26;;;;;;;34.75;24.60;;;;;;;21.68;52.22;98533.64;4299361;80;28645;-84
2021/05/01 15:48:28;;;;;;;34.13;23.75;;;;;;;21.44;52.76;98525.27;4305120;82;28613;-83
2021/05/01 15:54:30;;;;;;;32.93;22.32;;;;;;;21.68;53.80;98528.17;4305525;82;28576;-85
2021/05/01 16:00:35;;;;;;;31.05;22.25;;;;;;;22.23;51.67;98538.34;4310950;80;28656;-84
2021/05/01 16:06:37;;;;;;;36.05;23.92;;;;;;;21.56;54.69;98527.95;4320537;80;28583;-84
2021/05/01 16:12:39;;;;;;;32.70;24.02;;;;;;;22.09;51.81;98520.69;4324703;82;28631;-90
2021/05/01 16:18:41;;;;;;;33.20;23.57;;;;;;;22.00;52.55;98518.51;4320967;80;28600;-83
2021/05/01 16:24:44;;;;;;;34.40;23.22;;;;;;;21.92;51.79;98510.54;4350676;81;28624;-83
2021/05/01 16:30:46;;;;;;;39.08;26.57;;;;;;;21.91;53.14;98511.63;4331548;80;28586;-84
2021/05/01 16:36:48;;;;;;;34.48;24.72;;;;;;;21.23;55.96;98515.44;4324102;81;28578;-84
2021/05/01 16:42:51;;;;;;;39.63;26.70;;;;;;;21.37;55.06;98498.93;4328735;81;28614;-83
2021/05/01 16:48:55;;;;;;;33.55;25.60;;;;;;;20.93;58.20;98511.06;4329637;81;28694;-84
2021/05/01 16:54:58;;;;;;;37.60;24.35;;;;;;;20.87;58.55;98515.03;4321328;80;28580;-83
2021/05/01 17:01:00;;;;;;;38.30;25.20;;;;;;;21.25;57.10;98510.48;4308452;80;28568;-85
2021/05/01 17:07:02;;;;;;;35.52;24.52;;;;;;;20.87;58.81;98500.80;4307054;80;28651;-82
2021/05/01 17:13:05;;;;;;;35.33;25.37;;;;;;;20.97;58.12;98482.52;4325712;80;28612;-81
2021/05/01 17:19:06;;;;;;;38.78;25.52;;;;;;;20.65;59.58;98470.20;4338367;80;28634;-82
2021/05/01 17:25:09;;;;;;;35.90;24.43;;;;;;;20.52;61.30;98485.54;4319192;81;28619;-82
2021/05/01 17:31:11;;;;;;;38.33;25.25;;;;;;;20.20;63.16;98496.41;4324553;81;28579;-83
2021/05/01 17:37:13;;;;;;;34.35;22.02;;;;;;;20.02;65.14;98524.07;4349767;81;28677;-82
2021/05/01 17:43:16;;;;;;;31.97;22.30;;;;;;;20.11;65.08;98524.17;4338387;81;28656;-85
2021/05/01 17:49:18;;;;;;;36.90;24.32;;;;;;;20.58;61.79;98540.28;4328549;81;28655;-83
2021/05/01 17:55:21;;;;;;;39.15;26.48;;;;;;;20.55;61.53;98549.66;4319479;81;28635;-85
2021/05/01 18:01:23;;;;;;;42.75;27.58;;;;;;;20.33;63.18;98547.94;4325309;81;28647;-83
2021/05/01 18:07:25;;;;;;;46.30;28.20;;;;;;;20.19;64.84;98540.36;4320615;81;28601;-83
2021/05/01 18:13:27;;;;;;;44.30;30.37;;;;;;;20.26;65.51;98546.77;4326918;81;28574;-85
2021/05/01 18:19:30;;;;;;;45.75;30.85;;;;;;;20.22;65.65;98550.66;4330331;81;28639;-81
2021/05/01 18:25:33;;;;;;;51.25;33.20;;;;;;;20.14;66.99;98559.56;4334220;81;28611;-82
2021/05/01 18:31:35;;;;;;;50.58;33.58;;;;;;;19.95;69.55;98559.17;4315749;81;28614;-82
2021/05/01 18:37:41;;;;;;;52.15;32.42;;;;;;;20.27;65.95;98572.94;4342199;81;28688;-83
2021/05/01 18:43:43;;;;;;;48.80;31.62;;;;;;;20.16;66.33;98572.38;4325337;81;28647;-82
2021/05/01 18:49:46;;;;;;;50.75;33.20;;;;;;;20.37;64.57;98573.28;4316919;81;28603;-81
2021/05/01 18:55:48;;;;;;;51.28;33.28;;;;;;;19.76;71.34;98572.33;4327740;81;28572;-83
2021/05/01 19:01:50;;;;;;;47.85;30.80;;;;;;;19.58;69.67;98574.59;4335794;81;28943;-81
2021/05/01 19:07:53;;;;;;;47.43;30.23;;;;;;;19.88;68.14;98569.64;4351471;81;29745;-84
2021/05/01 19:14:04;;;;;;;46.83;30.12;;;;;;;19.76;70.30;98587.88;4330756;81;28671;-82
2021/05/01 19:20:08;;;;;;;44.80;28.85;;;;;;;19.81;68.23;98578.23;4313366;81;28633;-82
2021/05/01 19:26:13;;;;;;;45.28;28.67;;;;;;;19.77;68.66;98558.95;4322304;81;28599;-84
2021/05/01 19:32:17;;;;;;;46.98;30.52;;;;;;;19.08;75.93;98561.88;4315427;81;44086;-83
2021/05/01 19:38:20;;;;;;;49.83;30.95;;;;;;;19.13;78.55;98557.43;4310006;81;28619;-84
2021/05/01 19:44:23;;;;;;;44.65;28.70;;;;;;;19.25;76.82;98548.20;4313843;81;28657;-83
2021/05/01 19:50:26;;;;;;;43.58;27.15;;;;;;;19.45;74.39;98548.39;4327066;81;28580;-83
2021/05/01 19:56:29;;;;;;;45.55;27.50;;;;;;;19.41;74.03;98538.39;4331393;81;28655;-84
2021/05/01 20:02:31;;;;;;;43.58;28.73;;;;;;;19.07;78.08;98524.02;4321922;81;28672;-83
2021/05/01 20:08:35;;;;;;;49.05;29.98;;;;;;;19.41;73.82;98535.09;4317187;81;28604;-84
2021/05/01 20:14:37;;;;;;;47.55;29.20;;;;;;;19.21;76.37;98528.95;4320470;81;28623;-86
2021/05/01 20:20:40;;;;;;;44.88;28.60;;;;;;;19.32;75.45;98529.55;4303457;81;28575;-81
2021/05/01 20:26:43;;;;;;;45.75;28.90;;;;;;;19.32;74.62;98538.30;4323931;80;28615;-83
2021/05/01 20:32:46;;;;;;;52.15;31.52;;;;;;;19.17;77.41;98520.31;4319126;80;28633;-85
2021/05/01 20:38:49;;;;;;;54.73;33.28;;;;;;;18.88;79.51;98510.45;4329396;82;28599;-83
2021/05/01 20:44:51;;;;;;;54.00;33.95;;;;;;;18.42;85.43;98493.75;4311678;82;28666;-81
2021/05/01 20:50:54;;;;;;;54.60;33.98;;;;;;;18.34;87.99;98481.64;4330922;82;28593;-80
2021/05/01 20:56:56;;;;;;;57.83;35.03;;;;;;;18.25;88.60;98465.73;4322735;80;28629;-79
2021/05/01 21:02:58;;;;;;;53.78;33.67;;;;;;;18.01;92.40;98470.69;4308435;81;28596;-82
2021/05/01 21:09:00;;;;;;;54.53;33.63;;;;;;;18.06;92.72;98462.47;4320184;82;28661;-82
2021/05/01 21:15:06;;;;;;;54.00;32.42;;;;;;;17.94;93.85;98449.30;4333237;80;28604;-82
2021/05/01 21:21:08;;;;;;;55.30;34.63;;;;;;;18.39;87.96;98435.31;4318130;80;28663;-81
2021/05/01 21:27:10;;;;;;;54.40;33.10;;;;;;;18.46;86.42;98429.48;4321140;80;28679;-81
2021/05/01 21:33:13;;;;;;;53.17;31.40;;;;;;;18.08;93.92;98435.80;4341898;80;28702;-82
2021/05/01 21:39:15;;;;;;;52.35;29.75;;;;;;;18.15;92.18;98431.87;4331098;80;28634;-82
2021/05/01 21:45:17;;;;;;;55.08;33.85;;;;;;;17.96;96.38;98421.25;4328595;80;28629;-81
2021/05/01 21:51:19;;;;;;;51.10;29.85;;;;;;;17.78;99.90;98416.63;4309451;82;28655;-82
2021/05/01 21:57:22;;;;;;;47.30;28.27;;;;;;;17.74;99.87;98406.88;4321320;80;28595;-81
2021/05/01 22:03:28;;;;;;;48.38;29.63;;;;;;;17.70;99.77;98399.89;4331553;81;28950;-83
2021/05/01 22:09:31;;;;;;;44.77;26.97;;;;;;;18.02;94.49;98385.27;4317347;81;28581;-83
2021/05/01 22:15:33;;;;;;;47.48;28.00;;;;;;;17.64;99.01;98390.72;4333487;80;28666;-84
2021/05/01 22:27:41;;;;;;;51.63;30.33;;;;;;;17.93;92.22;98355.77;4315192;80;28666;-83
2021/05/01 22:33:43;;;;;;;47.78;27.55;;;;;;;17.78;92.39;98354.92;4329062;81;28619;-82
2021/05/01 22:39:45;;;;;;;52.20;30.85;;;;;;;18.22;86.03;98335.73;4314429;80;28627;-82
2021/05/01 22:45:52;;;;;;;44.08;27.05;;;;;;;17.57;91.70;98339.45;4326781;80;28607;-81
2021/05/01 22:51:55;;;;;;;52.17;29.98;;;;;;;17.92;87.47;98320.98;4320609;81;28677;-82
2021/05/01 22:57:59;;;;;;;53.17;31.33;;;;;;;17.92;86.78;98306.03;4339335;81;28577;-81
2021/05/01 23:04:01;;;;;;;56.55;32.38;;;;;;;17.58;92.59;98304.95;4332923;80;28670;-81
2021/05/01 23:10:08;;;;;;;53.80;30.92;;;;;;;17.55;93.30;98304.98;4314687;80;28686;-81
2021/05/01 23:16:15;;;;;;;53.05;30.15;;;;;;;17.37;94.35;98298.45;4321971;80;28600;-81
2021/05/01 23:22:18;;;;;;;53.65;30.68;;;;;;;17.09;97.58;98286.90;4331709;80;28666;-81
2021/05/01 23:28:22;;;;;;;55.75;32.63;;;;;;;17.58;91.26;98284.56;4348244;81;28569;-80
2021/05/01 23:34:25;;;;;;;51.85;31.57;;;;;;;17.35;93.97;98275.66;4317803;81;28585;-80
2021/05/01 23:40:27;;;;;;;59.50;33.85;;;;;;;17.25;96.19;98260.86;4339650;81;28672;-80
2021/05/01 23:46:29;;;;;;;51.50;29.37;;;;;;;16.75;100.00;98249.83;4333704;81;28620;-80
2021/05/01 23:52:31;;;;;;;54.15;31.15;;;;;;;17.23;95.36;98246.23;4340001;81;28596;-80
2021/05/01 23:58:33;;;;;;;58.52;32.08;;;;;;;17.17;96.63;98224.31;4351312;81;28673;-80
